Flight Track Log - Related Links

Times and Time Zones

All times are in EST time to prevent confusion due to time zone crossing. See the N795XJ flight status page for this flight to view local times or setup timezone preferences in your user account.

Time Position Orientation Groundspeed Altitude Reporting Facility
EST Latitude Longitude Course Direction KTS MPH feet Rate Location/Type
Mon 10:44:11 AM 29.5628 -95.6439 164° South 213 245 2,600  Level Houston Center
Mon 10:45:11 AM 29.5097 -95.6333 170° South 207 238 4,900 2,262 Climbing Houston Center
Mon 10:45:12 AM 29.4967 -95.6322 176° South 249 287 4,900 2,419 Level Houston Center
Mon 10:46:13 AM 29.4514 -95.5867 139° Southeast 267 307 7,400 2,661 Climbing Houston Center
Mon 10:47:16 AM 29.4281 -95.4708 103° East 327 376 10,400 2,448 Climbing Houston Center
Mon 10:48:18 AM 29.4667 -95.3622 68° East 365 420 12,500 2,226 Climbing Houston Center
Mon 10:49:20 AM 29.5061 -95.2444 69° East 396 456 15,000 2,468 Climbing Houston Center
Mon 10:50:22 AM 29.5358 -95.1217 74° East 412 474 17,600 2,806 Climbing Houston Center
Mon 10:51:24 AM 29.5719 -94.9731 74° East 411 473 20,800 2,758 Climbing Houston Center
Mon 10:52:26 AM 29.6028 -94.8456 74° East 417 480 23,300 2,177 Climbing Houston Center
Mon 10:53:28 AM 29.6344 -94.7108 75° East 435 501 25,300 1,728 Climbing Houston Center
Mon 10:54:31 AM 29.6692 -94.5650 75° East 470 541 26,900 1,488 Climbing Houston Center
Mon 10:55:33 AM 29.6978 -94.4083 78° East 499 574 28,400 1,597 Climbing Houston Center
Mon 10:56:35 AM 29.6781 -94.2042 96° East 539 620 30,200 1,536 Climbing Houston Center
Mon 10:57:38 AM 29.6467 -94.0403 102° East 546 628 31,600 1,403 Climbing Houston Center
Mon 10:58:39 AM 29.6144 -93.8664 102° East 558 642 33,100 1,463 Climbing Houston Center
Mon 10:59:41 AM 29.5808 -93.6892 102° East 570 656 34,600 1,597 Climbing Houston Center
Mon 11:00:43 AM 29.5386 -93.4703 102° East 584 672 36,400 1,584 Climbing Houston Center
Mon 11:01:46 AM 29.5033 -93.2847 102° East 597 687 37,900 1,440 Climbing Houston Center
Mon 11:02:48 AM 29.4678 -93.0967 102° East 605 696 39,400 1,452 Climbing Houston Center
Mon 11:03:50 AM 29.4303 -92.9069 103° East 612 704 40,900 1,452 Climbing Houston Center
Mon 11:04:52 AM 29.3925 -92.7192 103° East 609 701 42,400 1,597 Climbing Houston Center
Mon 11:05:54 AM 29.3500 -92.4989 102° East 596 686 44,200 1,258 Climbing Houston Center
Mon 11:06:56 AM 29.3136 -92.3197 103° East 584 672 45,000 384 Climbing Houston Center
Mon 11:07:59 AM 29.2783 -92.1367 102° East 587 676 45,000  Level Houston Center
Mon 11:09:01 AM 29.2403 -91.9519 103° East 597 687 45,000  Level Houston Center
Mon 11:10:03 AM 29.2014 -91.7653 103° East 602 693 45,000  Level Houston Center
Mon 11:11:05 AM 29.1628 -91.5697 103° East 606 697 45,000  Level Houston Center
Mon 11:12:07 AM 29.1161 -91.3461 103° East 605 696 45,000  Level Houston Center
Mon 11:13:09 AM 29.0761 -91.1600 104° East 606 697 45,000  Level Houston Center
Mon 11:14:11 AM 29.0372 -90.9733 103° East 606 697 45,000  Level Houston Center
Mon 11:15:14 AM 28.9981 -90.7867 103° East 607 699 45,000  Level Houston Center
Mon 11:16:16 AM 28.9589 -90.6006 103° East 607 699 45,000  Level Houston Center
Mon 11:17:18 AM 28.9103 -90.3772 104° East 606 697 45,000  Level Houston Center
Mon 11:18:20 AM 28.8703 -90.1914 104° East 607 699 45,000  Level Houston Center
Mon 11:19:22 AM 28.8294 -90.0050 104° East 608 700 45,000  Level Houston Center
Mon 11:20:24 AM 28.7889 -89.8203 104° East 607 699 45,000  Level Houston Center
Mon 11:21:26 AM 28.7481 -89.6331 104° East 610 702 45,000  Level Houston Center
Mon 11:22:29 AM 28.6978 -89.4081 104° East 616 709 45,000  Level Houston Center
Mon 11:23:31 AM 28.6561 -89.2233 104° East 609 701 45,000  Level Houston Center
Mon 11:24:33 AM 28.6147 -89.0386 104° East 606 697 45,000  Level Houston Center
Mon 11:25:35 AM 28.5733 -88.8519 104° East 609 701 45,000  Level Houston Center
Mon 11:26:37 AM 28.5303 -88.6675 105° East 607 699 45,000  Level Houston Center
Mon 11:27:39 AM 28.4878 -88.4822 105° East 608 700 45,000  Level Houston Center
Mon 11:28:41 AM 28.4361 -88.2594 105° East 610 702 45,000  Level Houston Center
Mon 11:29:44 AM 28.3953 -88.0861 105° East 605 696 45,000  Level Houston Center
Mon 11:30:46 AM 28.3389 -87.8783 107° East 609 701 45,000  Level Houston Center
Mon 11:31:48 AM 28.2869 -87.6972 108° East 607 699 45,000  Level Houston Center
Mon 11:32:50 AM 28.2333 -87.5169 109° East 606 697 45,000  Level Houston Center
Mon 11:33:52 AM 28.1811 -87.3356 108° East 607 699 45,000  Level Houston Center
Mon 11:34:54 AM 28.1278 -87.1556 109° East 605 696 45,000  Level Houston Center
Mon 11:36:20 AM 28.0444 -86.8756 109° East 605 696 45,000  Level Jacksonville Center
Mon 11:37:20 AM 27.9914 -86.7022 109° East 603 694 45,000  Level Jacksonville Center
Mon 11:38:20 AM 27.9344 -86.5050 108° East 616 709 45,000  Level Jacksonville Center
Mon 11:39:20 AM 27.8850 -86.3294 108° East 608 700 45,000  Level Jacksonville Center
Mon 11:40:20 AM 27.8292 -86.1494 109° East 608 700 45,000  Level Jacksonville Center
Mon 11:41:20 AM 27.7772 -85.9694 108° East 608 700 45,000  Level Jacksonville Center
Mon 11:42:20 AM 27.7211 -85.7828 109° East 605 696 45,000  Level Jacksonville Center
Mon 11:43:50 AM 27.6397 -85.5092 109° East 618 711 45,000  Level Miami Center
Mon 11:44:50 AM 27.5953 -85.3489 107° East 616 709 45,000  Level Miami Center
Mon 11:45:50 AM 27.5600 -85.1642 102° East 610 702 45,000  Level Miami Center
Mon 11:46:50 AM 27.5269 -84.9792 101° East 605 696 45,000  Level Miami Center
Mon 11:47:50 AM 27.4936 -84.7922 101° East 605 696 45,000  Level Miami Center
Mon 11:48:50 AM 27.4661 -84.6081 100° East 600 690 45,000  Level Miami Center
Mon 11:49:50 AM 27.4300 -84.4233 102° East 600 690 45,000 -300 Level Miami Center
Mon 11:50:50 AM 27.3906 -84.2200 102° East 605 696 44,400 -1,200 Descending Miami Center
Mon 11:51:50 AM 27.3453 -84.0419 106° East 605 696 42,600 -1,900 Descending Miami Center
Mon 11:52:50 AM 27.2725 -83.8694 115° Southeast 590 679 40,600 -2,000 Descending Miami Center
Mon 11:53:50 AM 27.1775 -83.7144 125° Southeast 597 687 38,600 -2,050 Descending Miami Center
Mon 11:54:50 AM 27.0847 -83.5619 124° Southeast 603 694 36,500 -2,100 Descending Miami Center
Mon 11:55:50 AM 26.9936 -83.4078 124° Southeast 598 688 34,400 -2,150 Descending Miami Center
Mon 11:56:50 AM 26.9047 -83.2517 123° Southeast 598 688 32,200 -2,100 Descending Miami Center
Mon 11:57:50 AM 26.8242 -83.0867 119° Southeast 593 682 30,200 -2,050 Descending Miami Center
Mon 11:58:50 AM 26.7772 -82.9144 107° East 589 678 28,100 -2,100 Descending Miami Center
Mon 11:59:50 AM 26.7614 -82.7394 96° East 576 663 26,000 -1,900 Descending Miami Center
Mon 12:00:50 PM 26.7475 -82.5644 95° East 565 650 24,300 -1,000 Descending Miami Center
Mon 12:01:50 PM 26.7353 -82.3964 95° East 560 644 24,000 -150 Descending Miami Center
Mon 12:02:50 PM 26.7206 -82.2353 96° East 555 639 24,000  Level Miami Center
Mon 12:03:50 PM 26.7078 -82.0697 95° East 541 623 24,000 -800 Level Miami Center
Mon 12:04:50 PM 26.6947 -81.9064 95° East 536 617 22,400 -2,150 Descending Miami Center
Mon 12:05:50 PM 26.6836 -81.7456 94° East 529 609 19,700 -1,700 Descending Miami Center
Mon 12:06:50 PM 26.6969 -81.5928 84° East 501 577 19,000 -350 Descending Miami Center
Mon 12:07:50 PM 26.7283 -81.4592 75° East 487 560 19,000 -150 Level Miami Center
Mon 12:08:50 PM 26.7622 -81.3094 76° East 487 560 18,700 -1,550 Descending Miami Center
Mon 12:09:50 PM 26.8000 -81.1644 74° East 487 560 15,900 -2,900 Descending Miami Center
Mon 12:10:50 PM 26.8231 -81.0164 80° East 460 529 12,900 -2,750 Descending Miami Center
Mon 12:11:50 PM 26.8331 -80.8886 85° East 426 490 10,400 -1,450 Descending Miami Center
Mon 12:12:50 PM 26.8147 -80.7903 102° East 378 435 10,000 -350 Descending Miami Center
Mon 12:13:50 PM 26.7739 -80.6794 112° Southeast 353 406 9,700 -800 Descending Miami Center
Mon 12:14:50 PM 26.7425 -80.5994 114° Southeast 313 360 8,400 -800 Descending Miami Center
Mon 12:15:50 PM 26.7075 -80.5053 113° Southeast 300 345 8,100 -150 Descending Miami Center
Mon 12:16:50 PM 26.6800 -80.4300 112° Southeast 295 339 8,100  Level Miami Center
Mon 12:17:50 PM 26.6447 -80.3361 113° Southeast 295 339 8,100 -200 Level Miami Center
Mon 12:18:50 PM 26.6153 -80.2608 114° Southeast 301 346 7,700 -950 Descending Miami Center
Mon 12:19:50 PM 26.5897 -80.1836 110° East 290 334 6,200 -1,650 Descending Miami Center
Mon 12:20:50 PM 26.5836 -80.0833 94° East 279 321 4,400 -1,800 Descending Miami Center
Mon 12:22:00 PM 26.6667 -80.0833 50° Northeast  Level FlightAware Approximate
Mon 12:29:00 PM 26.6832 -80.0956 50° Northeast  Level Estimated
Mon 12:30:00 PM 26.6832 -80.0956 50° Northeast  Level Estimated
Mon 12:31:00 PM 26.6832 -80.0956 50° Northeast  Level Estimated
Mon 12:32:00 PM 26.6832 -80.0956 50° Northeast  Level Estimated
Mon 12:33:00 PM 26.6832 -80.0956 50° Northeast  Level Estimated
Mon 12:34:00 PM 26.6832 -80.0956 50° Northeast  Level Estimated
Mon 12:35:00 PM 26.6832 -80.0956 50° Northeast  Level Estimated
Mon 12:36:00 PM 26.6832 -80.0956 50° Northeast  Level Estimated

Login

Don't have an account? Register now (free) for customized features, flight alerts, and more!